Time;durP1;ratioP1;P1;durP2;ratioP2;P2;SDS_P1;SDS_P2;PMS_P1;PMS_P2;Temp;Humidity;BMP_temperature;BMP_pressure;BME280_temperature;BME280_humidity;BME280_pressure;Samples;Min_cycle;Max_cycle;Signal;HPM_P1;HPM_P2
2023/05/13 00:01:59;;;;;;;;;;;;;;;13.38;100.00;101985.38;4977158;28;19932;-71
2023/05/13 00:04:25;;;;;;;;;;;;;;;13.35;100.00;101981.09;4981124;28;19932;-71
2023/05/13 00:06:50;;;;;;;;;;;;;;;13.35;100.00;101981.09;4989732;28;19925;-72
2023/05/13 00:09:15;;;;;;;;;;;;;;;13.33;100.00;101985.72;4972317;28;20530;-71
2023/05/13 00:11:40;;;;;;;;;;;;;;;13.29;100.00;101976.13;4972929;28;19959;-72
2023/05/13 00:14:08;;;;;;;;;;;;;;;13.29;100.00;101973.44;4980328;28;19925;-72
2023/05/13 00:16:33;;;;;;;;;;;;;;;13.27;100.00;101988.84;4979752;28;19972;-71
2023/05/13 00:18:58;;;;;;;;;;;;;;;13.28;100.00;101978.94;4995565;28;19925;-71
2023/05/13 00:21:24;;;;;;;;;;;;;;;13.20;100.00;101983.03;4995651;28;19965;-72
2023/05/13 00:23:49;;;;;;;;;;;;;;;13.10;100.00;101982.00;4982654;28;19964;-71
2023/05/13 00:26:14;;;;;;;;;;;;;;;13.06;100.00;101980.47;4989196;28;19926;-72
2023/05/13 00:28:39;;;;;;;;;;;;;;;13.01;100.00;101985.31;4980624;28;19936;-72
2023/05/13 00:31:05;;;;;;;;;;;;;;;13.00;100.00;101979.06;4980974;28;19929;-71
2023/05/13 00:33:30;;;;;;;;;;;;;;;12.95;100.00;101980.34;4987593;28;20024;-72
2023/05/13 00:35:56;;;;;;;;;;;;;;;12.89;100.00;101982.50;4991344;28;20003;-72
2023/05/13 00:38:21;;;;;;;;;;;;;;;12.82;100.00;101981.22;4989271;28;19925;-72
2023/05/13 00:40:46;;;;;;;;;;;;;;;12.77;100.00;101983.38;4973438;28;19925;-72
2023/05/13 00:43:11;;;;;;;;;;;;;;;12.78;100.00;101982.41;4993938;28;19964;-71
2023/05/13 00:45:36;;;;;;;;;;;;;;;12.78;100.00;101984.22;4975401;28;19929;-72
2023/05/13 00:48:02;;;;;;;;;;;;;;;12.72;100.00;101991.75;4996990;28;19964;-72
2023/05/13 00:50:27;;;;;;;;;;;;;;;12.69;100.00;101989.28;4990877;28;20435;-71
2023/05/13 00:52:53;;;;;;;;;;;;;;;12.63;100.00;101989.69;4989853;28;20607;-72
2023/05/13 00:55:18;;;;;;;;;;;;;;;12.51;100.00;101994.09;4991083;28;20403;-72
2023/05/13 00:57:43;;;;;;;;;;;;;;;12.42;100.00;101995.59;5013124;28;20458;-72
2023/05/13 01:00:09;;;;;;;;;;;;;;;12.35;100.00;101998.78;5005144;28;19925;-72
2023/05/13 01:02:46;;;;;;;;;;;;;;;12.26;100.00;101986.78;4990034;28;19964;-72
2023/05/13 01:05:15;;;;;;;;;;;;;;;12.24;100.00;101991.41;4991589;28;19938;-71
2023/05/13 01:07:43;;;;;;;;;;;;;;;12.15;100.00;101983.00;5003238;28;19921;-72
2023/05/13 01:10:28;;;;;;;;;;;;;;;12.02;100.00;101987.44;5004845;28;20407;-72
2023/05/13 01:12:54;;;;;;;;;;;;;;;11.93;100.00;101990.69;4981484;28;20015;-72
2023/05/13 01:15:21;;;;;;;;;;;;;;;11.74;100.00;101980.31;4978356;28;19928;-71
2023/05/13 01:17:53;;;;;;;;;;;;;;;11.66;100.00;101983.47;4989860;28;19921;-72
2023/05/13 01:20:20;;;;;;;;;;;;;;;11.59;100.00;101982.16;5011269;28;19991;-72
2023/05/13 01:22:46;;;;;;;;;;;;;;;11.49;100.00;101990.78;5001919;28;19922;-71
2023/05/13 01:25:11;;;;;;;;;;;;;;;11.42;100.00;101985.91;5003676;28;19938;-72
2023/05/13 01:27:36;;;;;;;;;;;;;;;11.33;100.00;101984.66;4963880;28;20341;-72
2023/05/13 01:30:01;;;;;;;;;;;;;;;11.27;100.00;101987.72;4994052;28;19921;-71
2023/05/13 01:32:27;;;;;;;;;;;;;;;11.22;100.00;101985.34;4964788;28;20016;-72
2023/05/13 01:34:52;;;;;;;;;;;;;;;11.12;100.00;101990.44;5002957;28;19945;-72
2023/05/13 01:37:18;;;;;;;;;;;;;;;11.06;100.00;101993.47;4981024;28;19921;-71
2023/05/13 01:39:43;;;;;;;;;;;;;;;11.02;100.00;101987.41;5002589;28;19921;-72
2023/05/13 01:42:08;;;;;;;;;;;;;;;11.02;100.00;101983.88;5003604;28;19926;-72
2023/05/13 01:44:34;;;;;;;;;;;;;;;11.03;100.00;101989.16;4979443;28;20483;-71
2023/05/13 01:46:59;;;;;;;;;;;;;;;11.02;100.00;101986.56;4981340;28;19932;-71
2023/05/13 01:49:24;;;;;;;;;;;;;;;11.04;100.00;101987.34;4985105;28;19932;-72
2023/05/13 01:51:50;;;;;;;;;;;;;;;11.02;100.00;101987.41;4988974;28;19968;-71
2023/05/13 01:54:15;;;;;;;;;;;;;;;10.97;100.00;101984.16;4979184;28;20059;-72
2023/05/13 01:56:40;;;;;;;;;;;;;;;10.94;100.00;101981.66;4986266;28;20773;-72
2023/05/13 01:59:06;;;;;;;;;;;;;;;10.96;100.00;101990.50;4985683;28;20333;-71
2023/05/13 02:01:32;;;;;;;;;;;;;;;10.91;100.00;101995.28;4987034;28;20652;-72
2023/05/13 02:03:58;;;;;;;;;;;;;;;10.88;100.00;101987.41;4985135;28;19921;-72
2023/05/13 02:06:23;;;;;;;;;;;;;;;10.85;100.00;101988.47;4989603;28;19932;-71
2023/05/13 02:08:49;;;;;;;;;;;;;;;10.82;100.00;101987.78;4993818;28;19965;-71
2023/05/13 02:11:14;;;;;;;;;;;;;;;10.87;100.00;101994.59;4993905;28;19931;-71
2023/05/13 02:13:39;;;;;;;;;;;;;;;10.89;100.00;101987.31;4989196;28;19925;-71
2023/05/13 02:16:04;;;;;;;;;;;;;;;10.91;100.00;101990.75;4983983;28;20670;-71
2023/05/13 02:18:30;;;;;;;;;;;;;;;10.89;100.00;101990.00;4986600;28;19925;-71
2023/05/13 02:20:56;;;;;;;;;;;;;;;10.84;100.00;101991.25;4992601;28;19917;-72
2023/05/13 02:23:21;;;;;;;;;;;;;;;10.83;100.00;101992.19;4990968;28;19925;-72
2023/05/13 02:25:46;;;;;;;;;;;;;;;10.81;100.00;101992.31;4994962;28;19967;-71
2023/05/13 02:28:12;;;;;;;;;;;;;;;10.73;100.00;101989.19;5008474;28;20036;-72
2023/05/13 02:30:37;;;;;;;;;;;;;;;10.69;100.00;101987.66;4992021;28;19927;-72
2023/05/13 02:33:02;;;;;;;;;;;;;;;10.60;100.00;101989.06;4995418;28;19925;-71
2023/05/13 02:35:28;;;;;;;;;;;;;;;10.52;100.00;101989.53;4993952;28;20419;-72
2023/05/13 02:37:54;;;;;;;;;;;;;;;10.47;100.00;101994.31;4994636;28;20398;-71
2023/05/13 02:40:19;;;;;;;;;;;;;;;10.49;100.00;101995.09;4991981;28;19921;-71
2023/05/13 02:42:44;;;;;;;;;;;;;;;10.45;100.00;101991.72;4989163;28;20590;-71
2023/05/13 02:45:10;;;;;;;;;;;;;;;10.44;100.00;101995.38;4983276;28;20330;-71
2023/05/13 02:47:35;;;;;;;;;;;;;;;10.44;100.00;101990.00;5009974;28;19917;-71
2023/05/13 02:50:00;;;;;;;;;;;;;;;10.42;100.00;101991.91;4993346;28;20323;-72
2023/05/13 02:52:26;;;;;;;;;;;;;;;10.38;100.00;101986.75;4992863;28;20407;-72
2023/05/13 02:54:51;;;;;;;;;;;;;;;10.34;100.00;101991.44;4990649;28;20031;-72
2023/05/13 02:57:16;;;;;;;;;;;;;;;10.31;100.00;101992.50;4991462;28;19927;-72
2023/05/13 02:59:41;;;;;;;;;;;;;;;10.25;100.00;101990.16;4994081;28;19932;-72
2023/05/13 03:02:07;;;;;;;;;;;;;;;10.13;100.00;101974.75;4991894;28;19925;-71
2023/05/13 03:04:32;;;;;;;;;;;;;;;10.18;100.00;101988.78;4975298;28;20423;-72
2023/05/13 03:06:57;;;;;;;;;;;;;;;10.20;100.00;101981.50;4997864;28;20530;-72
2023/05/13 03:09:22;;;;;;;;;;;;;;;10.24;100.00;101988.44;4994085;28;20388;-71
2023/05/13 03:11:47;;;;;;;;;;;;;;;10.18;100.00;101984.28;4990738;28;21233;-72
2023/05/13 03:14:13;;;;;;;;;;;;;;;10.16;100.00;101988.00;4988739;28;20419;-72
2023/05/13 03:16:38;;;;;;;;;;;;;;;10.14;100.00;101980.06;4977389;28;19921;-71
2023/05/13 03:19:03;;;;;;;;;;;;;;;10.12;100.00;101975.72;4986731;28;19957;-72
2023/05/13 03:21:28;;;;;;;;;;;;;;;10.11;100.00;101974.88;4987925;28;21037;-72
2023/05/13 03:23:54;;;;;;;;;;;;;;;10.05;100.00;101972.53;4976386;28;21233;-71
2023/05/13 03:26:20;;;;;;;;;;;;;;;10.00;100.00;101988.03;4978010;28;19964;-72
2023/05/13 03:28:45;;;;;;;;;;;;;;;9.94;100.00;101989.25;4964770;28;20761;-72
2023/05/13 03:31:11;;;;;;;;;;;;;;;9.93;100.00;101983.97;4992008;28;19986;-71
2023/05/13 03:33:36;;;;;;;;;;;;;;;9.86;100.00;101987.00;4987323;28;19944;-71
2023/05/13 03:36:01;;;;;;;;;;;;;;;9.79;100.00;101990.97;4992155;28;20227;-72
2023/05/13 03:38:27;;;;;;;;;;;;;;;9.71;100.00;101993.22;4983878;28;20362;-71
2023/05/13 03:40:52;;;;;;;;;;;;;;;9.67;100.00;101994.31;4974074;28;19960;-72
2023/05/13 03:43:17;;;;;;;;;;;;;;;9.63;100.00;101998.16;4988698;28;19925;-72
2023/05/13 03:45:46;;;;;;;;;;;;;;;9.59;100.00;101997.44;4988021;28;19936;-71
2023/05/13 03:48:11;;;;;;;;;;;;;;;9.58;100.00;102001.94;4991201;28;20125;-72
2023/05/13 03:50:36;;;;;;;;;;;;;;;9.59;100.00;102001.00;4984728;28;19925;-72
2023/05/13 03:53:02;;;;;;;;;;;;;;;9.51;100.00;101999.69;4983701;28;19925;-71
2023/05/13 03:55:27;;;;;;;;;;;;;;;9.49;100.00;102006.97;4985347;28;19922;-72
2023/05/13 03:57:53;;;;;;;;;;;;;;;9.37;100.00;101995.94;5007668;28;19928;-72
2023/05/13 04:00:18;;;;;;;;;;;;;;;9.24;100.00;102001.09;4987103;28;19921;-71
2023/05/13 04:02:43;;;;;;;;;;;;;;;9.17;100.00;102005.03;4982922;28;19925;-71
2023/05/13 04:05:08;;;;;;;;;;;;;;;9.13;100.00;102007.03;4984812;28;19957;-72
2023/05/13 04:07:33;;;;;;;;;;;;;;;9.10;100.00;102003.66;4979723;28;19932;-71
2023/05/13 04:09:59;;;;;;;;;;;;;;;9.08;100.00;102006.41;4973582;28;19971;-72
2023/05/13 04:12:24;;;;;;;;;;;;;;;9.06;100.00;102002.09;4979026;28;19925;-72
2023/05/13 04:14:49;;;;;;;;;;;;;;;9.07;100.00;102006.50;4994865;28;19921;-71
2023/05/13 04:17:14;;;;;;;;;;;;;;;9.06;100.00;102010.97;4993527;28;19960;-72
2023/05/13 04:19:39;;;;;;;;;;;;;;;9.04;100.00;102012.00;4981237;28;19926;-72
2023/05/13 04:22:05;;;;;;;;;;;;;;;9.12;100.00;102009.81;4984802;28;19921;-71
2023/05/13 04:24:30;;;;;;;;;;;;;;;9.14;100.00;102018.59;5005016;28;19949;-72
2023/05/13 04:26:55;;;;;;;;;;;;;;;9.15;100.00;102023.91;4993995;28;20372;-71
2023/05/13 04:29:20;;;;;;;;;;;;;;;9.18;100.00;102020.19;4978952;28;19929;-71
2023/05/13 04:31:46;;;;;;;;;;;;;;;9.25;100.00;102020.75;4986046;28;19921;-72
2023/05/13 04:34:11;;;;;;;;;;;;;;;9.26;100.00;102019.78;4982800;28;20031;-71
2023/05/13 04:36:36;;;;;;;;;;;;;;;9.29;100.00;102023.16;4981666;28;19991;-72
2023/05/13 04:39:02;;;;;;;;;;;;;;;9.33;100.00;102018.50;4983968;28;19944;-72
2023/05/13 04:41:27;;;;;;;;;;;;;;;9.36;100.00;102018.31;4991674;28;19925;-72
2023/05/13 04:43:52;;;;;;;;;;;;;;;9.42;100.00;102022.47;4987407;28;19992;-72
2023/05/13 04:46:17;;;;;;;;;;;;;;;9.48;100.00;102016.78;5006803;28;20303;-72
2023/05/13 04:48:47;;;;;;;;;;;;;;;9.51;100.00;102021.16;5006616;28;19964;-71
2023/05/13 04:51:12;;;;;;;;;;;;;;;9.55;100.00;102018.19;4985002;28;20537;-72
2023/05/13 04:53:37;;;;;;;;;;;;;;;9.60;100.00;102020.63;4988103;28;19922;-72
2023/05/13 04:56:02;;;;;;;;;;;;;;;9.66;100.00;102016.75;4982593;28;20003;-71
2023/05/13 04:58:28;;;;;;;;;;;;;;;9.70;100.00;102024.53;4984879;28;19976;-72
2023/05/13 05:00:53;;;;;;;;;;;;;;;9.73;100.00;102021.69;4988024;28;20127;-72
2023/05/13 05:03:19;;;;;;;;;;;;;;;9.74;100.00;102023.41;4979489;28;20375;-71
2023/05/13 05:05:44;;;;;;;;;;;;;;;9.78;100.00;102025.94;4978279;28;19926;-71
2023/05/13 05:08:09;;;;;;;;;;;;;;;9.70;100.00;102016.50;4982816;28;19980;-71
2023/05/13 05:10:34;;;;;;;;;;;;;;;9.89;100.00;102039.59;4982666;28;20347;-71
2023/05/13 05:13:00;;;;;;;;;;;;;;;9.96;100.00;102032.06;4985269;28;19928;-72
2023/05/13 05:15:25;;;;;;;;;;;;;;;10.02;100.00;102032.63;4997351;28;19921;-72
2023/05/13 05:17:50;;;;;;;;;;;;;;;10.08;100.00;102027.81;4983178;28;19921;-72
2023/05/13 05:20:15;;;;;;;;;;;;;;;10.14;100.00;102032.84;5006955;28;19929;-72
2023/05/13 05:22:41;;;;;;;;;;;;;;;10.24;100.00;102041.22;4987619;28;20059;-72
2023/05/13 05:25:06;;;;;;;;;;;;;;;10.29;100.00;102041.84;4979003;28;19929;-71
2023/05/13 05:27:31;;;;;;;;;;;;;;;10.28;100.00;102046.38;4984862;28;19926;-72
2023/05/13 05:29:57;;;;;;;;;;;;;;;10.33;100.00;102044.25;4988547;28;19928;-72
2023/05/13 05:32:22;;;;;;;;;;;;;;;10.44;100.00;102046.38;4984865;28;19929;-71
2023/05/13 05:34:47;;;;;;;;;;;;;;;10.47;100.00;102059.59;4985196;28;20088;-72
2023/05/13 05:37:12;;;;;;;;;;;;;;;10.56;100.00;102057.34;5005230;28;20311;-72
2023/05/13 05:39:39;;;;;;;;;;;;;;;10.67;100.00;102054.03;4982138;28;20526;-71
2023/05/13 05:42:05;;;;;;;;;;;;;;;10.80;100.00;102058.56;4984281;28;19921;-72
2023/05/13 05:44:30;;;;;;;;;;;;;;;10.93;100.00;102058.72;4992319;28;19936;-72
2023/05/13 05:46:55;;;;;;;;;;;;;;;11.05;100.00;102058.94;4996212;28;19932;-71
2023/05/13 05:49:20;;;;;;;;;;;;;;;11.20;100.00;102057.16;4988814;28;19926;-72
2023/05/13 05:51:46;;;;;;;;;;;;;;;11.24;100.00;102061.38;4975227;28;19921;-72
2023/05/13 05:54:11;;;;;;;;;;;;;;;11.27;100.00;102054.94;4978696;28;20456;-71
2023/05/13 05:56:36;;;;;;;;;;;;;;;11.34;100.00;102057.16;4987746;28;20377;-71
2023/05/13 05:59:01;;;;;;;;;;;;;;;11.51;100.00;102060.63;4989859;28;20677;-72
2023/05/13 06:01:31;;;;;;;;;;;;;;;11.78;100.00;102062.56;4984686;28;20452;-71
2023/05/13 06:03:57;;;;;;;;;;;;;;;12.03;100.00;102051.09;4966250;28;20016;-72
2023/05/13 06:06:22;;;;;;;;;;;;;;;12.17;100.00;102058.28;4968648;28;20671;-72
2023/05/13 06:08:47;;;;;;;;;;;;;;;12.10;100.00;102054.25;4989617;28;20443;-71
2023/05/13 06:11:12;;;;;;;;;;;;;;;12.25;100.00;102058.66;4986250;28;20443;-71
2023/05/13 06:13:38;;;;;;;;;;;;;;;12.39;100.00;102057.72;4984459;28;19977;-71
2023/05/13 06:16:03;;;;;;;;;;;;;;;12.59;100.00;102058.22;4980656;28;19926;-72
2023/05/13 06:18:28;;;;;;;;;;;;;;;12.66;100.00;102059.56;4986346;28;20381;-71
2023/05/13 06:20:53;;;;;;;;;;;;;;;12.48;100.00;102063.44;4986267;28;19921;-72
2023/05/13 06:23:19;;;;;;;;;;;;;;;12.40;100.00;102067.53;4985756;28;19929;-71
2023/05/13 06:25:44;;;;;;;;;;;;;;;12.36;100.00;102059.75;4984931;28;19968;-72
2023/05/13 06:28:09;;;;;;;;;;;;;;;12.22;100.00;102066.03;4981608;28;19972;-72
2023/05/13 06:30:36;;;;;;;;;;;;;;;12.28;100.00;102071.03;4986651;28;19963;-71
2023/05/13 06:33:02;;;;;;;;;;;;;;;12.45;100.00;102067.22;4987730;28;20163;-71
2023/05/13 06:35:27;;;;;;;;;;;;;;;12.74;100.00;102059.03;4992450;28;20141;-72
2023/05/13 06:37:52;;;;;;;;;;;;;;;13.11;100.00;102064.56;4994221;28;20449;-71
2023/05/13 06:40:17;;;;;;;;;;;;;;;13.48;100.00;102067.44;4982944;28;20727;-72
2023/05/13 06:42:43;;;;;;;;;;;;;;;13.72;100.00;102073.91;4987592;28;20320;-72
2023/05/13 06:45:08;;;;;;;;;;;;;;;13.86;100.00;102067.50;4991675;28;20335;-71
2023/05/13 06:47:35;;;;;;;;;;;;;;;13.88;100.00;102061.00;5008011;28;22651;-71
2023/05/13 06:50:01;;;;;;;;;;;;;;;13.90;100.00;102058.22;5004221;28;19928;-72
2023/05/13 06:52:27;;;;;;;;;;;;;;;13.73;100.00;102071.09;4983860;28;19921;-71
2023/05/13 06:54:52;;;;;;;;;;;;;;;13.95;100.00;102070.41;4989865;28;19957;-71
2023/05/13 06:57:17;;;;;;;;;;;;;;;14.25;100.00;102068.25;4986740;28;19973;-72
2023/05/13 06:59:43;;;;;;;;;;;;;;;14.62;100.00;102070.91;4987561;28;20442;-71
2023/05/13 07:02:10;;;;;;;;;;;;;;;14.78;100.00;102070.66;4987165;28;20287;-71
2023/05/13 07:04:35;;;;;;;;;;;;;;;14.90;100.00;102074.25;4989018;28;19928;-71
2023/05/13 07:07:00;;;;;;;;;;;;;;;14.94;100.00;102077.56;4988425;28;20403;-71
2023/05/13 07:09:26;;;;;;;;;;;;;;;14.97;100.00;102080.03;4987800;28;20008;-72
2023/05/13 07:11:51;;;;;;;;;;;;;;;14.93;100.00;102082.13;4990337;28;19921;-71
2023/05/13 07:14:16;;;;;;;;;;;;;;;14.83;100.00;102081.94;5005536;28;19922;-71
2023/05/13 07:16:41;;;;;;;;;;;;;;;14.62;100.00;102078.16;4991432;28;19921;-71
2023/05/13 07:19:07;;;;;;;;;;;;;;;14.85;100.00;102085.41;4991455;28;19921;-73
2023/05/13 07:21:32;;;;;;;;;;;;;;;15.08;100.00;102071.97;4993097;28;19972;-72
2023/05/13 07:23:57;;;;;;;;;;;;;;;15.10;100.00;102078.09;4988168;28;19925;-72
2023/05/13 07:26:22;;;;;;;;;;;;;;;15.37;100.00;102076.06;4988623;28;20019;-71
2023/05/13 07:28:47;;;;;;;;;;;;;;;15.71;100.00;102068.84;4991740;28;20519;-72
2023/05/13 07:31:13;;;;;;;;;;;;;;;16.05;100.00;102067.97;4991698;28;20411;-72
2023/05/13 07:33:38;;;;;;;;;;;;;;;16.31;100.00;102068.53;4983789;28;19926;-71
2023/05/13 07:36:04;;;;;;;;;;;;;;;16.51;100.00;102068.72;4994284;28;19926;-72
2023/05/13 07:38:29;;;;;;;;;;;;;;;16.39;100.00;102072.47;4987081;28;19925;-71
2023/05/13 07:40:55;;;;;;;;;;;;;;;16.31;100.00;102073.06;4987460;28;19979;-71
2023/05/13 07:43:22;;;;;;;;;;;;;;;16.26;100.00;102073.47;4985610;28;19960;-72
2023/05/13 07:45:48;;;;;;;;;;;;;;;16.39;100.00;102073.31;4987998;28;19972;-72
2023/05/13 07:48:13;;;;;;;;;;;;;;;16.61;100.00;102071.50;4988155;28;20059;-71
2023/05/13 07:50:38;;;;;;;;;;;;;;;16.97;100.00;102072.13;4987063;28;19968;-72
2023/05/13 07:53:04;;;;;;;;;;;;;;;17.26;100.00;102071.47;4987491;28;19923;-72
2023/05/13 07:55:29;;;;;;;;;;;;;;;17.18;100.00;102074.84;4988842;28;21491;-72
2023/05/13 07:57:54;;;;;;;;;;;;;;;17.37;99.92;102075.94;4986295;28;19926;-71
2023/05/13 08:00:19;;;;;;;;;;;;;;;17.35;100.00;102064.38;4986373;28;19922;-73
2023/05/13 08:02:45;;;;;;;;;;;;;;;17.52;100.00;102074.59;4985509;28;19921;-72
2023/05/13 08:05:10;;;;;;;;;;;;;;;17.72;97.59;102072.00;4986015;28;19925;-72
2023/05/13 08:07:35;;;;;;;;;;;;;;;17.76;100.00;102069.84;4994372;28;19953;-71
2023/05/13 08:10:00;;;;;;;;;;;;;;;17.72;93.09;102079.25;4987012;28;20032;-71
2023/05/13 08:12:26;;;;;;;;;;;;;;;17.87;98.17;102074.31;5006759;28;20032;-71
2023/05/13 08:14:51;;;;;;;;;;;;;;;18.01;98.75;102078.53;4985057;28;19922;-72
2023/05/13 08:17:18;;;;;;;;;;;;;;;18.11;93.62;102074.84;4990043;28;20349;-73
2023/05/13 08:19:44;;;;;;;;;;;;;;;18.31;96.42;102074.03;4987783;28;19921;-71
2023/05/13 08:22:09;;;;;;;;;;;;;;;18.33;89.67;102077.47;5016644;28;20748;-71
2023/05/13 08:24:34;;;;;;;;;;;;;;;18.48;94.88;102067.06;5001499;28;20068;-71
2023/05/13 08:27:00;;;;;;;;;;;;;;;18.50;97.20;102070.50;4994322;28;20383;-71
2023/05/13 08:29:25;;;;;;;;;;;;;;;18.63;94.61;102076.50;4987774;28;19921;-72
2023/05/13 08:31:52;;;;;;;;;;;;;;;18.85;93.35;102080.78;4988019;28;19922;-71
2023/05/13 08:34:17;;;;;;;;;;;;;;;18.82;89.50;102077.47;4986371;28;20335;-71
2023/05/13 08:36:43;;;;;;;;;;;;;;;18.94;89.74;102076.34;4990572;28;19932;-72
2023/05/13 08:39:09;;;;;;;;;;;;;;;19.15;88.93;102076.22;4993575;28;20035;-72
2023/05/13 08:41:34;;;;;;;;;;;;;;;19.16;90.00;102071.63;4989727;28;19925;-70
2023/05/13 08:43:59;;;;;;;;;;;;;;;19.25;87.67;102070.75;4990021;28;19928;-71
2023/05/13 08:46:25;;;;;;;;;;;;;;;19.27;89.07;102066.00;5009329;28;19932;-71
2023/05/13 08:48:51;;;;;;;;;;;;;;;19.40;82.68;102065.69;4990390;28;19929;-72
2023/05/13 08:51:16;;;;;;;;;;;;;;;19.49;86.58;102066.66;4990543;28;20543;-72
2023/05/13 08:53:41;;;;;;;;;;;;;;;19.65;88.30;102068.75;4985817;28;19932;-72
2023/05/13 08:56:07;;;;;;;;;;;;;;;19.78;80.22;102061.06;5004450;28;20440;-71
2023/05/13 08:58:32;;;;;;;;;;;;;;;19.89;79.39;102067.38;4986290;28;20370;-71
2023/05/13 09:00:57;;;;;;;;;;;;;;;19.82;82.68;102063.50;4995739;28;20227;-71
2023/05/13 09:03:22;;;;;;;;;;;;;;;19.99;79.35;102060.03;5001392;28;19932;-71
2023/05/13 09:05:47;;;;;;;;;;;;;;;19.86;78.44;102060.34;4995261;28;19963;-71
2023/05/13 09:08:13;;;;;;;;;;;;;;;20.21;82.87;102053.25;5013203;28;20016;-71
2023/05/13 09:10:38;;;;;;;;;;;;;;;20.40;75.34;102065.03;4980084;28;19925;-71
2023/05/13 09:13:04;;;;;;;;;;;;;;;20.46;76.58;102066.31;5011741;28;19927;-71
2023/05/13 09:15:30;;;;;;;;;;;;;;;20.63;78.16;102059.97;5009103;28;19972;-70
2023/05/13 09:17:59;;;;;;;;;;;;;;;20.68;70.88;102063.09;4990219;28;19921;-70
2023/05/13 09:20:24;;;;;;;;;;;;;;;20.87;80.24;102063.97;5009153;28;19925;-72
2023/05/13 09:22:50;;;;;;;;;;;;;;;21.04;69.18;102062.22;5006888;28;19932;-69
2023/05/13 09:25:15;;;;;;;;;;;;;;;21.17;72.46;102058.25;5009040;28;19940;-72
2023/05/13 09:27:41;;;;;;;;;;;;;;;;;;4993135;28;19922;-72
2023/05/13 09:30:06;;;;;;;;;;;;;;;21.50;67.85;102052.94;4994526;28;19990;-71
2023/05/13 09:32:31;;;;;;;;;;;;;;;21.56;69.13;102058.66;4994181;28;20024;-71
2023/05/13 09:34:57;;;;;;;;;;;;;;;21.70;73.64;102059.06;4997549;28;20283;-72
2023/05/13 09:37:22;;;;;;;;;;;;;;;21.85;68.30;102051.09;5004144;28;20418;-70
2023/05/13 09:39:47;;;;;;;;;;;;;;;21.90;59.81;102048.72;4997083;28;19960;-72
2023/05/13 09:42:16;;;;;;;;;;;;;;;21.92;66.60;102051.28;5007370;28;20468;-71
2023/05/13 09:44:41;;;;;;;;;;;;;;;22.05;65.60;102040.75;4992904;28;19925;-71
2023/05/13 09:47:10;;;;;;;;;;;;;;;22.24;66.26;102039.59;5006225;28;19967;-72
2023/05/13 09:49:36;;;;;;;;;;;;;;;22.47;64.58;102041.72;4999208;28;20347;-72
2023/05/13 09:52:01;;;;;;;;;;;;;;;22.49;60.96;102038.81;5018151;28;19925;-72
2023/05/13 09:54:32;;;;;;;;;;;;;;;22.67;59.48;102036.75;5003455;28;19922;-72
2023/05/13 09:56:59;;;;;;;;;;;;;;;22.91;58.62;102044.09;4992418;28;20505;-73
2023/05/13 09:59:25;;;;;;;;;;;;;;;23.04;57.39;102031.78;5005997;28;19921;-71
2023/05/13 10:01:52;;;;;;;;;;;;;;;23.03;58.29;102032.81;4976207;28;19924;-71
2023/05/13 10:04:17;;;;;;;;;;;;;;;23.19;60.07;102040.13;4994803;28;19928;-72
2023/05/13 10:06:43;;;;;;;;;;;;;;;23.30;56.13;102036.22;4992022;28;19930;-73
2023/05/13 10:09:08;;;;;;;;;;;;;;;23.49;52.76;102026.72;5009277;28;20223;-70
2023/05/13 10:11:34;;;;;;;;;;;;;;;23.49;49.93;102021.22;4996894;28;20019;-73
2023/05/13 10:14:01;;;;;;;;;;;;;;;23.63;51.22;102015.03;4999411;28;19925;-72
2023/05/13 10:16:28;;;;;;;;;;;;;;;23.86;48.62;102019.72;4995657;28;19929;-72
2023/05/13 10:18:53;;;;;;;;;;;;;;;23.96;50.99;102023.09;4989653;28;19956;-72
2023/05/13 10:21:18;;;;;;;;;;;;;;;24.11;48.25;102019.59;4993760;28;19921;-72
2023/05/13 10:23:44;;;;;;;;;;;;;;;24.39;44.45;102016.31;4992116;28;19921;-73
2023/05/13 10:26:09;;;;;;;;;;;;;;;24.70;46.12;102010.75;4990681;28;19935;-72
2023/05/13 10:28:34;;;;;;;;;;;;;;;24.89;46.41;102021.41;4974314;28;20013;-73
2023/05/13 10:30:59;;;;;;;;;;;;;;;24.84;52.73;102016.50;5003000;28;19943;-74
2023/05/13 10:33:26;;;;;;;;;;;;;;;25.07;45.25;102013.66;4988569;28;19965;-73
2023/05/13 10:36:04;;;;;;;;;;;;;;;25.26;42.27;102015.03;5008917;28;19928;-70
2023/05/13 10:38:37;;;;;;;;;;;;;;;25.42;42.86;102013.97;4992063;28;19953;-71
2023/05/13 10:41:10;;;;;;;;;;;;;;;25.75;43.40;102010.84;4994017;28;19941;-69
2023/05/13 10:43:36;;;;;;;;;;;;;;;25.92;43.33;102005.09;4999013;28;19917;-71
2023/05/13 10:46:03;;;;;;;;;;;;;;;26.00;41.63;102016.00;5003382;28;19931;-71
2023/05/13 10:48:41;;;;;;;;;;;;;;;25.88;37.45;102009.28;5020233;28;20030;-71
2023/05/13 10:51:07;;;;;;;;;;;;;;;26.49;39.25;102000.63;5005272;28;19917;-72
2023/05/13 10:53:35;;;;;;;;;;;;;;;26.25;39.53;101999.16;4995277;28;19964;-73
2023/05/13 10:56:00;;;;;;;;;;;;;;;26.45;41.43;102002.09;4992532;28;20347;-71
2023/05/13 10:58:29;;;;;;;;;;;;;;;26.61;42.44;101998.22;4990593;28;20410;-71
2023/05/13 11:01:10;;;;;;;;;;;;;;;26.86;41.89;102002.47;4993413;28;20205;-72
2023/05/13 11:03:36;;;;;;;;;;;;;;;26.85;38.52;102000.75;4993815;28;19921;-71
2023/05/13 11:06:14;;;;;;;;;;;;;;;27.31;39.66;102002.13;5007789;28;20284;-71
2023/05/13 11:08:44;;;;;;;;;;;;;;;27.93;35.27;101993.94;4990662;28;19972;-72
2023/05/13 11:11:21;;;;;;;;;;;;;;;27.95;38.06;101995.41;4993489;28;20185;-71
2023/05/13 11:13:52;;;;;;;;;;;;;;;27.64;38.62;101995.94;4988720;28;19929;-71
2023/05/13 11:16:18;;;;;;;;;;;;;;;27.39;38.33;102004.72;4988135;28;20446;-72
2023/05/13 11:18:43;;;;;;;;;;;;;;;27.94;38.47;101995.63;4990476;28;20445;-72
2023/05/13 11:21:08;;;;;;;;;;;;;;;28.34;37.25;101990.19;4988854;28;19925;-73
2023/05/13 11:23:48;;;;;;;;;;;;;;;28.49;37.44;101981.72;4988681;28;19925;-71
2023/05/13 11:26:15;;;;;;;;;;;;;;;29.01;37.25;101983.81;4995312;28;19929;-72
2023/05/13 11:28:54;;;;;;;;;;;;;;;29.53;36.42;101983.06;4993363;28;19959;-73
2023/05/13 11:31:22;;;;;;;;;;;;;;;29.61;32.46;101985.59;5009448;28;19925;-70
2023/05/13 11:34:08;;;;;;;;;;;;;;;29.44;33.01;101988.81;4992926;28;19952;-73
2023/05/13 11:36:33;;;;;;;;;;;;;;;29.77;35.19;101985.06;4994934;28;20020;-73
2023/05/13 11:39:25;;;;;;;;;;;;;;;29.43;35.83;101984.34;4992273;28;19925;-72
2023/05/13 11:41:51;;;;;;;;;;;;;;;28.35;32.80;101974.47;4988388;28;20026;-71
2023/05/13 11:44:20;;;;;;;;;;;;;;;29.27;34.92;101977.34;4991746;28;19933;-71
2023/05/13 11:46:55;;;;;;;;;;;;;;;29.31;31.45;101975.88;4989348;28;19925;-71
2023/05/13 11:49:31;;;;;;;;;;;;;;;29.26;31.56;101980.34;4991675;28;19922;-71
2023/05/13 11:51:57;;;;;;;;;;;;;;;29.23;35.08;101964.19;4991392;28;20016;-71
2023/05/13 11:54:22;;;;;;;;;;;;;;;28.90;29.09;101977.03;5006477;28;19976;-71
2023/05/13 11:56:47;;;;;;;;;;;;;;;29.24;31.53;101972.28;4975368;28;20222;-72
2023/05/13 11:59:13;;;;;;;;;;;;;;;30.18;30.77;101982.94;4996979;28;20241;-72
2023/05/13 12:01:38;;;;;;;;;;;;;;;29.56;26.96;101986.22;4987407;28;20491;-75
2023/05/13 12:04:04;;;;;;;;;;;;;;;29.81;30.34;101965.25;4990426;28;19922;-71
2023/05/13 12:06:30;;;;;;;;;;;;;;;30.64;30.23;101963.41;4990893;28;20071;-72
2023/05/13 12:08:55;;;;;;;;;;;;;;;29.47;30.53;101970.97;4999402;28;20004;-71
2023/05/13 12:11:21;;;;;;;;;;;;;;;30.55;32.65;101954.50;4999579;28;20453;-71
2023/05/13 12:13:46;;;;;;;;;;;;;;;29.70;28.50;101972.34;4984129;28;19932;-71
2023/05/13 12:16:11;;;;;;;;;;;;;;;28.59;29.27;101959.19;5004972;28;19936;-71
2023/05/13 12:18:37;;;;;;;;;;;;;;;29.81;32.32;101955.00;5013456;28;20296;-70
2023/05/13 12:21:12;;;;;;;;;;;;;;;30.63;31.07;101959.81;5017177;28;19968;-70
2023/05/13 12:23:38;;;;;;;;;;;;;;;30.85;30.01;101958.53;5015791;28;20341;-71
2023/05/13 12:26:06;;;;;;;;;;;;;;;30.35;30.29;101951.91;5002430;28;19929;-69
2023/05/13 12:28:31;;;;;;;;;;;;;;;30.33;29.22;101956.81;4996406;28;19936;-69